# Team Name BIB Division Finish Time
1 Badak Ceta Sakti C104 SECURITY 01:31:45
2 LC RUNNER C178 SAG LEARNING CENTRE 01:35:19
3 LAC RUNNERS 001 C144 LOAN ADMIN CENTER DIV 01:46:05
4 Kebo gupak C105 SECURITY 01:51:36
5 CIM052 C102 SOF CIMAHI 01:52:15
6 OTO Jalan Club C168 BOARD OF DIRECTOR 01:54:14
7 LC RUNVOLUTION C169 HR PEOPLE DEVELOPMENT DIV 01:56:30
8 skyline C109 ICU & AUDIT DIV 01:59:41
9 BOIM C154 ACCOUNTING DIV 02:03:17
10 LAC RUNNERS 002 C145 LOAN ADMIN CENTER DIV 02:03:41
11 SatSet Run C110 APPLICATION & CREDIT CENTER DIV 02:16:50
12 BARYON RUNNER C174 SAG LEARNING CENTRE 02:19:06
13 A4 C113 HR PEOPLE DEVELOPMENT DIV 02:19:33
14 Keong Anom C130 IT DEVELOPMENT DIV 02:20:50
15 BARED RUNNER C120 SOF BANDUNG 05 02:21:33
16 Sayur SOP C136 ADMINISTRATION DEVELOPMENT DIV 02:23:41
17 Kedoya Doras C152 SOF KEDOYA 02:24:47
18 Quantum Speed C108 ICU & AUDIT DIV 02:25:39
19 TEAM LARI 5KM C106 HR REMUNERATION 02:26:09
20 ATLAS C128 OTO TANGERANG 01 02:26:09
21 Ancemon run C138 APPLICATION & CREDIT CENTER DIV 02:26:23
22 Keong BaSAH C133 IT SERVICES DIV 02:26:48
23 Pepes Jambal C117 SOF KARAWANG 02:26:53
24 Bizz Movement C122 BUSINESS RISK MANAGEMENT HEAD 02:27:32
25 Samurai 1 C125 OTO LEASE SALES DIVISION 02:29:51
26 Sorabi Hejo C175 SOF KARAWANG 02:29:57
27 Kiporno C119 ACCOUNTING DIV 02:32:40
28 hePIer TEAMS C132 ADMINISTRATION DEVELOPMENT DIV 02:33:12
29 The Jenggot C107 HR SERVICES DIV 02:36:12
30 SLIM C103 ICU & AUDIT DIV 02:37:48
31 SNAKEHEAD C160 SOF CIKARANG 02:38:05
32 Ngeng Ngeng Squad C114 APPLICATION & CREDIT CENTER DIV 02:38:21
33 Anak Rantau C182 BUSINESS DEVELOPMENT DIV 02:38:23
34 DE_JONG C126 ICU & AUDIT DIV 02:38:46
35 TEAMLO C139 ACCOUNTING DIV 02:40:13
36 ALON ALON C176 BUSINESS DEVELOPMENT DIV 02:40:59
37 KOPASJIBA C140 SOF PEKANBARU 02:41:25
38 insPIring C134 ADMINISTRATION DEVELOPMENT DIV 02:42:17
39 Keong Sultan C112 IT DEVELOPMENT DIV 02:42:19
40 SEMOGA FINISH C137 BUSINESS DEVELOPMENT DIV 02:42:31
41 Kocar Kacir C124 ACCOUNTING DIV 02:43:40
42 Jakarta Sehat C179 SOF TANGERANG 02 02:43:51
43 Glinding C141 CORPORATE SECRETARY 02:44:09
44 niyu niyu C118 CORPORATE SECRETARY 02:44:19
45 Orus Team C157 SOF FATMAWATI 02:45:05
46 Kelelawarhitam CCM C170 CORPORATE CONTROL & MONITORING DIV 02:47:60
47 GURILEM C143 BUSINESS DEVELOPMENT DIV 02:49:04
48 Underrated C131 ACCOUNTING DIV 02:49:29
49 SOBeR Ta Brani C163 SOF BEKASI 02:49:57
50 Advokat Sporty C148 COLLECTION DIV 02:50:08
51 Bekasi Satu OTO C151 OTO BEKASI 02:50:42
52 Jawara Ciledug 1 C146 SOF CILEDUG 02:52:02
53 AJAK IJIK RUN C164 APPLICATION & CREDIT CENTER DIV 02:52:07
54 WANS C177 ICU & AUDIT DIV 02:53:30
55 Anak Buah Hilman C135 HR PEOPLE DEVELOPMENT DIV 02:54:06
56 Oplosan C150 SOF FATMAWATI 02:55:24
57 Combro Racer C123 ICU & AUDIT DIV 02:55:42
58 GRASAK GRUSUK C162 OTO TANGERANG SELATAN 02:59:17
59 Oksigen C142 APPLICATION & CREDIT CENTER DIV 02:59:48
# Team Name BIB Division Finish Time
1 Pemburu Berkah F368 SAG LEARNING CENTRE 02:00:44
2 TEAM DMA F301 BOARD OF DIRECTOR 02:09:47
3 DORAYAKI F375 FINANCIAL RESOURCES DIV 02:23:10
4 GLADIATOR CIKUPA F311 SOF TANGERANG 01 02:24:60
5 The G Boyz F316 ACCOUNTING DIV 02:25:56
6 Siliwangi F367 SOF CIKAMPEK 02:29:19
7 BADUY DALEM F327 SOF RANGKAS BITUNG 02:30:11
8 Kami Pasti Finish F314 UNIT KERJA ANTI PENCUCIAN UANG DAN PPT DIV 02:30:37
9 DJP Offline F319 ACCOUNTING DIV 02:31:38
10 The Warriors F320 ADMINISTRATION DIV 02:31:40
11 BADUY CIKUPA F309 OTO TANGERANG 02 02:32:01
12 LAC RUNNERS 013 F359 LOAN ADMIN CENTER DIV 02:33:38
13 ONIGIRI F371 FINANCE GROUP DIV 02:34:24
14 GANCANG F331 OTO LEASE ADMINISTRATION DIVISION 02:35:29
15 LAC RUNNERS 012 F358 LOAN ADMIN CENTER DIV 02:36:27
16 Sultan F322 COLLECTION DIV 02:36:35
17 Run To Busan F324 ICU & AUDIT DIV 02:37:25
18 LAC RUNNERS 003 F346 LOAN ADMIN CENTER DIV 02:37:32
19 SIKALASTIC F302 CORPORATE CONTROL & MONITORING DIV 02:38:25
20 Mahmud Kandis F365 FINANCIAL SERVICES DIV 02:38:51
21 PutusCintaMatiKita F318 HR SERVICES DIV 02:40:31
22 Keong Turbo F328 IT DEVELOPMENT DIV 02:42:33
23 R2BT F306 APPLICATION & CREDIT CENTER DIV 02:43:30
24 Pendekar Lembut F387 ICU & AUDIT DIV 02:43:52
25 LAC RUNNERS 011 F376 LOAN ADMIN CENTER DIV 02:46:27
26 Beauty & The Best F338 IT DEVELOPMENT DIV 02:47:08
27 Berdendang Berlari F325 ICU & AUDIT DIV 02:47:13
28 LAC RUNNERS 015 F353 LOAN ADMIN CENTER DIV 02:47:37
29 Serigala Terakhir F308 ICU & AUDIT DIV 02:47:59
30 Roamer F337 SOF TANGERANG 01 02:48:31
31 LAST MINUTE F386 HR PEOPLE DEVELOPMENT DIV 02:48:52
32 LAC RUNNERS 007 F344 LOAN ADMIN CENTER DIV 02:49:18
33 LAC RUNNERS 010 F349 LOAN ADMIN CENTER DIV 02:49:24
34 Jaran Goyang F303 OTO CIREBON 02:49:54
35 OJO DIBANDINGKE F310 HR POLICY & SYSTEM DEVELOPMENT DIV 02:50:35
36 LAC RUNNERS 017 F355 LOAN ADMIN CENTER DIV 02:50:41
37 JIRAYA F317 ACCOUNTING DIV 02:50:46
38 FLUFFY F377 SAG LEARNING CENTRE 02:51:13
39 KALANG KABUT F370 ACCOUNTING DIV 02:51:37
40 LAC RUNNERS 018 F356 LOAN ADMIN CENTER DIV 02:52:16
41 Jawara Ciledug 4 F361 SOF CILEDUG 02:52:36
42 Operation F334 SOF TANGERANG 01 02:52:52
43 Tanpa Motivasi F312 HR SERVICES DIV 02:53:55
44 CHILLs F336 SOF PASAR MINGGU 02:55:14
45 Nasi Ulam F342 ICU & AUDIT DIV 02:55:19
46 Mantul Team F389 APPLICATION & CREDIT CENTER DIV 02:55:36
47 ASAL TEKAN F313 HR SERVICES DIV 02:56:53
48 LAC RUNNERS 014 F357 LOAN ADMIN CENTER DIV 02:57:19
49 LAC RUNNERS 008 F347 LOAN ADMIN CENTER DIV 02:57:30
50 S23 ULTRA F305 ICU & AUDIT DIV 02:58:03
51 IRPAN'S ANGELS F362 SAG LEARNING CENTRE 02:59:47
# Team Name BIB Division Finish Time
1 The Cranners E594 WIJAYA MOTOR 01:24:52
2 BCA AR 1 E615 BCA 01:29:11
3 BCA AR 2 E616 BCA 01:42:52
4 Flash Runner E580 PT BANK HSBC INDONESIA 01:47:03
5 ASO1 E511 PT ASURANSI SUMIT OTO 01:48:25
6 BCA AR 5 E629 BCA 01:52:30
7 Sinaya Runners E572 Bank BTPN 02:00:03
8 The Runners E597 HSO YOGYAKARTA 02:01:09
9 BCA AR 3 E617 BCA 02:01:52
10 Korpo E581 PT BANK HSBC INDONESIA 02:02:46
11 MOTORUNS E631 ASTRA MOTOR HO 02:03:15
12 Dream Team Walker E504 DBS INDONESIA 02:04:26
13 DBSI_01 E589 DBS INDONESIA 02:04:28
14 HS2 E584 HENDRA SOENARDI 02:06:39
15 Team Charlie E611 MUFG BANK LTD 02:07:03
16 tob Ins A E532 PT ASURANSI TOTAL BERSAMA 02:08:01
17 Cheetahs E522 BANK OF AMERICA 02:08:16
18 WANI E602 MITRA PRATAMA, CV (KUPANG) 02:09:29
19 BCA AR 4 E618 BCA 02:09:58
20 AHM Runners-3 E642 PT ASTRA HONDA MOTOR 02:10:29
21 mlehoy1 E569 Bank BTPN 02:11:02
22 SSRI 1 E635 SUMITOMO INDONESIA 02:11:55
23 AHM Runners-4 E643 PT ASTRA HONDA MOTOR 02:12:51
24 SSRI 2 E636 SUMITOMO INDONESIA 02:13:35
25 PASUKAN KATAK 2 E627 PKSS 02:13:60
26 Ganda Campuran E622 BANK BTPN 02:14:34
27 KPMG 5 (Advisory) E530 KPMG 02:14:54
28 Abeam Star-Link E565 ABEAM 02:16:23
29 Bintang Runners E644 BINTANG MOTOR 02:16:48
30 Cucok Meong E606 Bank BTPN 02:17:12
31 ASM Run E568 PT. ASURANSI SINAR MAS 02:18:17
32 tobins-tim2 E537 PT ASURANSI TOTAL BERSAMA 02:18:47
33 AHM Runners-1 E641 PT ASTRA HONDA MOTOR 02:19:30
34 MLEHOY 2 E567 Bank BTPN 02:20:46
35 Astrido E619 ASTRIDO 02:20:56
36 Standard Chartered E517 STANDARD CHARTERED BANK 02:21:58
37 Free 4 U E520 PT BANK PERMATA TBK 02:22:04
38 HS3 E647 HENDRA SOENARDI 02:23:48
39 IchiGo Runners E595 BANK MIZUHO INDONESIA 02:24:35
40 SMB Senin Rabu E632 PT AHM 02:24:37
41 Astra Runner E549 HSO PALEMBANG 02:25:05
42 Shubarashii E571 Bank BTPN 02:25:34
43 Kurang Jantan E526 PT BANK PERMATA TBK 02:25:51
44 Etam Runners E557 HSO SAMARINDA 02:26:07
45 SPICY E603 Bank BTPN 02:26:14
46 Team GJRM - DBS E600 DBS INDONESIA 02:26:25
47 Team SCB FIVE E521 STANDARD CHARTERED BANK 02:26:36
48 MAS E596 PT BANK SINARMAS TBK 02:26:37
49 GenZ E523 BANK OF AMERICA 02:26:58
50 Mager E543 Bank BTPN 02:28:15
51 DB COOL E624 DEUTSCHE BANK 02:28:24
52 ABeam 4 Rangers E609 ABEAM 02:28:30
53 BCA GBK E544 BCA 02:29:24
54 SINAR E578 PT BANK SINARMAS TBK 02:29:26
55 NETSOL Indonesia01 E506 NETSOL 02:29:46
56 HS 6 E540 HENDRA SOENARDI 02:29:51
57 Team 3 E505 PT SMFL LEASING INDONESIA 02:30:21
58 Bencoolen Run E550 HSO BENGKULU 02:30:55
59 HS4 E592 HENDRA SOENARDI 02:32:33
60 Trio Runners E598 TRIO MOTOR 02:32:35
61 SSRI 4 E638 SUMITOMO INDONESIA 02:32:60
62 ASURANSI RAKSA 1 E563 ASURANSI RAKSA PRATIKARA 02:33:29
63 JG RUNNERS 1 E562 JG MOTOR GROUP 02:33:46
64 Team Echo E612 MUFG BANK LTD 02:34:34
65 Avenged 4BOLD E501 PT.SCSK GLOBAL INDONESIA 02:34:47
66 TERANG E604 PT BANK SINARMAS TBK 02:35:05
67 BDD Runners E608 BANK MIZUHO INDONESIA 02:35:22
68 ABeam DagDigDug E547 ABEAM 02:35:36
69 Wahana Runners 4 E601 PT. WAHANA MAKMUR SEJATI 02:35:52
70 ABeam MIHO E566 ABEAM 02:36:29
71 Simas Sehat 1 E512 PT. ASURANSI SINAR MAS 02:37:18
72 Run Forrest E536 BANK MIZUHO INDONESIA 02:37:28
73 TEAM SCB TWO E519 STANDARD CHARTERED BANK 02:37:45
74 ABeam Finisher E545 ABEAM 02:38:01
75 MSIG 2 E646 MSIG Indonesia 02:38:46
76 KPMG 4 (Audit) E533 KPMG 02:39:50
77 CEPUNG TEAM E553 HSO DENPASAR 02:40:04
78 SMFL2 E503 PT SMFL LEASING INDONESIA 02:40:11
79 NGABRET E583 PT DAYA ADICIPTA MOTORA 02:40:38
80 HS 7 E541 HENDRA SOENARDI 02:40:60
81 ASM Healthy Run E531 PT. ASURANSI SINAR MAS 02:41:04
82 HCD E513 PT. ASURANSI SINAR MAS 02:41:11
83 Mukti Runners E625 PT MUKTI ABADI SADAYA 02:41:35
84 BPJS PREMIUM E510 PT PREMIUM GARANSI INDONESIA 02:41:60
85 Wahana Runners 3 E599 PT. WAHANA MAKMUR SEJATI 02:43:29
86 DB FUN E623 DEUTSCHE BANK 02:44:29
87 ABeam Cuan Maker E561 ABEAM 02:45:02
88 PELARI KENCANG E633 BANK BTPN 02:45:10
89 TeamBangan E539 Bank BTPN 02:45:25
90 SSRI 3 E637 SUMITOMO INDONESIA 02:45:32
91 AMARTA E546 PT AMARTA SAYAP MERAH 02:45:32
92 RUNMITTANCE E607 BANK MIZUHO INDONESIA 02:45:34
93 SSRI 6 E640 SUMITOMO INDONESIA 02:46:39
94 ABeam 8.6+ E564 ABEAM 02:47:18
95 GREEN FORCE E560 SURYA TIMUR SAKTI JATIM 02:48:09
96 KPMG 1 (Legal) E527 KPMG 02:48:23
97 NETSOL Indonesia02 E507 NETSOL 02:48:25
98 Extremely E558 PT. YIMM - DDS 2 WEST JAVA 02:48:29
99 HS 8 E542 HENDRA SOENARDI 02:49:09
100 MU Runners E582 MITRA UTAMA 02:49:56
101 MORA-HO E576 PT RAMARAYO PERDANA 02:49:58
102 Tech Runner E518 PT. ASURANSI SINAR MAS 02:50:07
103 SRANTAL SRUNTUL E509 PT PREMIUM GARANSI INDONESIA 02:51:08
104 Simas Sehat 2 E514 PT. ASURANSI SINAR MAS 02:51:24
105 PEKANBARU RUNNER E585 CAPELLA DINAMIKA NUSANTARA RIDAR 02:51:30
106 BORNEO CLOWN E551 HSO PONTIANAK 02:51:56
107 Golden Boy New E559 DARMADI MOTOR 02:52:23
108 Arista Champion E548 ARISTA YAMAHA 02:52:37
109 HS 5 E538 HENDRA SOENARDI 02:52:40
110 GAES E645 PT SUMMIT NIAGA 02:52:50
111 CLASSY E554 SURYA TIMUR SAKTI JATIM 02:52:58
112 KPMG 3 (Audit) E529 KPMG 02:53:37
113 Raksa Terdepan E586 ASURANSI RAKSA PRATIKARA 02:54:36
114 CRC Runners E534 BANK MIZUHO INDONESIA 02:54:58
115 Dipaksa Lari E574 Bank BTPN 02:55:50
116 BRM E552 BINTANG REJEKI MOTOR 02:56:05
117 Pelari Manja E605 BANK MIZUHO INDONESIA 02:56:13
118 Sibibipi E577 Bank BTPN 02:56:28
119 Mukti Runners 2 E628 PT MUKTI ABADI SADAYA 02:57:01
120 Go Go Runner E515 PT. ASURANSI SINAR MAS 02:58:20
# Team Name BIB Division Finish Time
1 Yamaha Max A765 PT YIMM 01:41:22
2 Kukuruyuk A730 EKA SURYA WIJAYA 01:41:53
3 MSIG I A785 MSIG Indonesia 01:52:45
4 AGMD A711 SMBC 01:54:33
5 SERA RUNNER A782 PT SERASI AUTO RAYA 01:56:20
6 Cuan Cuan A747 PT BANK HSBC INDONESIA 02:00:12
7 Kerja kejaRun A728 PT. ANEKA MAKMUR SEJAHTERA 02:00:36
8 HS1 A743 HENDRA SOENARDI 02:00:42
9 Lo Run To 2 A745 Bank BTPN 02:01:36
10 Team Delta A773 MUFG BANK LTD 02:06:32
11 Mager-Run A744 PT BANK HSBC INDONESIA 02:11:37
12 Nemen Runners A746 ASTRA MOTOR 02:12:13
13 Expatriate 1 A775 Bank BTPN 02:12:40
14 Bombastic Side Eye A705 PT BANK PERMATA TBK 02:13:23
15 SCSK Vets A703 PT.SCSK GLOBAL INDONESIA 02:14:09
16 HORAS RUN A723 PT. ALFA SCORPII 02:15:59
17 SMFL1 A701 PT SMFL LEASING INDONESIA 02:16:29
18 Mirza Mobil A729 MIRZA MOBIL 02:18:32
19 Mizuho Bank Runner A710 BANK MIZUHO INDONESIA 02:19:49
20 Lo Run To 1 A770 Bank BTPN 02:20:29
21 Team A A753 TUNAS DWIPA MATRA 02:21:31
22 MEDAN RUNNER A739 HONDA KITA, CV (TANJUNG PURA) 02:21:40
23 LAKIK BANGED !! A779 BANK BTPN 02:22:40
24 MAX A734 PT. YIMM - DDS 2 WEST JAVA 02:23:06
25 The FaStro A756 MITRA JAYA GROUP 02:24:34
26 LoRunTo 3 A767 Bank BTPN 02:24:45
27 Wahana Runners 1 A761 WAHANA MAKMUR SEJATI 02:24:54
28 SCB ONE A709 STANDARD CHARTERED BANK 02:25:10
29 Pelari Sgt Berdaya A768 Bank BTPN 02:27:21
30 SetiajayaMobilindo A732 SETIAJAYA MOBILINDO 02:28:28
31 AHM Runners-2 A784 PT ASTRA HONDA MOTOR 02:28:38
32 CEMARA BANDUNG A717 CEMARA AGUNG MOTOR 02:29:36
33 Dealunners A736 PT BANK PERMATA TBK 02:30:49
34 ASM Fun Run A707 PT. ASURANSI SINAR MAS 02:31:27
35 OONA Insurance A712 OONA INSURANCE (ABDA) 02:31:39
36 Lautan Teduh A731 PT. LTI 02:31:46
37 LoRunTo4 A766 Bank BTPN 02:32:22
38 HECO Runner A721 PT. HAYATI PRATAMA MANDIRI 02:33:07
39 Alpha 1 A771 MUFG BANK LTD 02:33:34
40 NGABRING A748 PT DAYA ADICIPTA MOTORA 02:33:37
41 MAXXI RIDAR A735 PT. ALFA SCORPII 02:35:29
42 Team Beta A772 MUFG BANK LTD 02:36:16
43 Team Fanta A774 MUFG BANK LTD 02:36:32
44 The GIMON A757 NAGAMAS GROUP 02:37:16
45 Berdikari A716 BERDIKARI 02:38:30
46 MAZE RUNNER A738 PT THAMRIN BROTHERS 02:39:24
47 Fazzio Runner A720 YIMM 02:42:14
48 ASO2 A704 PT ASURANSI SUMIT OTO 02:43:01
49 WARI RUNNERS 1 A763 WAHANAARTHA RITELINDO 02:44:27
50 Co.Co.L A751 BANK MIZUHO INDONESIA 02:45:02
51 Bapack Onepack A702 PT.SCSK GLOBAL INDONESIA 02:45:21
52 DARRunners A706 PT BANK PERMATA TBK 02:46:51
53 STSJ BORNEO A752 PT . SURYA TIMUR SAKTI JATIM 02:48:46
54 SCB FOUR A708 STANDARD CHARTERED BANK 02:50:11
55 The Slowest A760 PACIFIC MOTOR GROUP 02:50:20
56 Team B A755 PT TUNAS DWIPA MATRA 02:50:49
57 Asco Daihatsu 1 A776 ASCO DAIHATSU 02:51:36
58 DAYA MOTOR RUN A718 DAYA MOTOR 02:52:44
59 Team ASP A754 PT. ASIA SURYA PERKASA 02:53:10
60 JG RUNNERS 3 A725 JG MOTOR GROUP 02:53:17
61 Siberat Kencang A750 TDM 02:55:24
62 JG RUNNERS 2 A724 JG MOTOR GROUP 02:55:57
63 BALI RUNNER A715 HSO DENPASAR 02:57:20
64 The Juku Eja A758 ASTRA MOTOR 02:59:16
65 Moaci Runner A740 ANUGERAH GROUP 02:59:58
# Full name BIB Number Team name Finish Time
1 Ragil Irawan F343-1 INTERNAL FUN EKIDEN ZAB SONYEONDAN 00:23:28
2 Meki Passu F343-4 INTERNAL FUN EKIDEN ZAB SONYEONDAN 00:24:36
3 Takanori Otsuka F301-1 INTERNAL FUN EKIDEN TEAM DMA 00:25:01
4 Muhamad Fahrul Rozi F368-4 INTERNAL FUN EKIDEN Pemburu Berkah 00:26:38
5 Akinori Otsu F301-3 INTERNAL FUN EKIDEN TEAM DMA 00:27:09
6 Satoshi Ono F375-3 INTERNAL FUN EKIDEN DORAYAKI 00:27:51
7 Al Auzar F309-3 INTERNAL FUN EKIDEN BADUY CIKUPA 00:27:57
8 Didin Sholahuddin F367-4 INTERNAL FUN EKIDEN Siliwangi 00:28:08
9 Fedral Chaniago F309-1 INTERNAL FUN EKIDEN BADUY CIKUPA 00:28:24
10 Alfajri Ramadhana Alham F368-1 INTERNAL FUN EKIDEN Pemburu Berkah 00:29:11
11 Dadi Bahtiar F327-4 INTERNAL FUN EKIDEN BADUY DALEM 00:29:56
12 Aditya Rahardiyanto F314-2 INTERNAL FUN EKIDEN Kami Pasti Finish 00:30:01
13 Fachrurroji Fachrurroji F361-1 INTERNAL FUN EKIDEN Jawara Ciledug 4 00:30:18
14 Iboy Hariyanto F322-2 INTERNAL FUN EKIDEN Sultan 00:30:57
15 Dhika Vidiansyah F314-1 INTERNAL FUN EKIDEN Kami Pasti Finish 00:31:09
16 Supriatna . F368-3 INTERNAL FUN EKIDEN Pemburu Berkah 00:31:10
17 Victoria Rusna F301-2 INTERNAL FUN EKIDEN TEAM DMA 00:31:11
18 Siska Noverina F371-1 INTERNAL FUN EKIDEN ONIGIRI 00:31:31
19 Tri Andini F365-2 INTERNAL FUN EKIDEN Mahmud Kandis 00:31:32
20 Michael Mahesa Manara F324-2 INTERNAL FUN EKIDEN Run To Busan 00:31:50
21 Daniel Gerardo F311-2 INTERNAL FUN EKIDEN GLADIATOR CIKUPA 00:31:56
22 Jorgha Rizki F320-1 INTERNAL FUN EKIDEN The Warriors 00:32:20
23 Wida Urip Prasojo F368-2 INTERNAL FUN EKIDEN Pemburu Berkah 00:32:27
24 Rizal Felani F311-1 INTERNAL FUN EKIDEN GLADIATOR CIKUPA 00:32:43
25 Muhammad Naufal F318-1 INTERNAL FUN EKIDEN PutusCintaMatiKita 00:32:59
26 Cocok Situmorang F361-3 INTERNAL FUN EKIDEN Jawara Ciledug 4 00:33:05
27 Yustianto Catur F316-4 INTERNAL FUN EKIDEN The G Boyz 00:33:13
28 Dhimas Hananto Seno F346-2 INTERNAL FUN EKIDEN LAC RUNNERS 003 00:33:20
29 Kevin Syahfauzi F359-2 INTERNAL FUN EKIDEN LAC RUNNERS 013 00:34:08
30 Mutohary Mutohary F319-4 INTERNAL FUN EKIDEN DJP Offline 00:34:14
31 Ariyo Wibowo F302-3 INTERNAL FUN EKIDEN SIKALASTIC 00:34:14
32 Andes Efrizal F331-2 INTERNAL FUN EKIDEN GANCANG 00:34:16
33 Muhammad Rizaldi F376-3 INTERNAL FUN EKIDEN LAC RUNNERS 011 00:34:20
34 Endi Hermawan F327-3 INTERNAL FUN EKIDEN BADUY DALEM 00:34:22
35 Daud Ctrada F312-4 INTERNAL FUN EKIDEN Tanpa Motivasi 00:34:55
36 Christian Lasut F375-4 INTERNAL FUN EKIDEN DORAYAKI 00:34:57
37 Muhammad Faizal F310-4 INTERNAL FUN EKIDEN OJO DIBANDINGKE 00:35:10
38 Rifai Abdillah F342-2 INTERNAL FUN EKIDEN Nasi Ulam 00:35:38
39 Aris Mulyadi F322-3 INTERNAL FUN EKIDEN Sultan 00:35:50
40 Satria Arumaji F377-1 INTERNAL FUN EKIDEN FLUFFY 00:35:51
41 Budi Setiawan F328-4 INTERNAL FUN EKIDEN Keong Turbo 00:35:55
42 Rasjono Rasjono F349-1 INTERNAL FUN EKIDEN LAC RUNNERS 010 00:36:01
43 Febri Dwiandriani F338-4 INTERNAL FUN EKIDEN Beauty & The Best 00:36:01
44 Adhi Mufti F387-1 INTERNAL FUN EKIDEN Pendekar Lembut 00:36:03
45 Julian Rachmanda F353-1 INTERNAL FUN EKIDEN LAC RUNNERS 015 00:36:21
46 Arief Zakaria F386-4 INTERNAL FUN EKIDEN LAST MINUTE 00:36:27
47 Edi Hermawan F316-2 INTERNAL FUN EKIDEN The G Boyz 00:36:30
48 Mohamad Arif Rikardi F303-1 INTERNAL FUN EKIDEN Jaran Goyang 00:36:30
49 Zulkarnain Shiddiq F312-2 INTERNAL FUN EKIDEN Tanpa Motivasi 00:36:30
50 Bonggo Panglimo F358-3 INTERNAL FUN EKIDEN LAC RUNNERS 012 00:36:34
51 Oktrinaldi Suhenda F320-4 INTERNAL FUN EKIDEN The Warriors 00:36:42
52 Gilang Ramadhan F338-2 INTERNAL FUN EKIDEN Beauty & The Best 00:36:43
53 Muhammad Irvan Fadillah F331-3 INTERNAL FUN EKIDEN GANCANG 00:36:46
54 Irwan Tirta F316-3 INTERNAL FUN EKIDEN The G Boyz 00:36:48
55 Mohammad Renaldi F347-4 INTERNAL FUN EKIDEN LAC RUNNERS 008 00:36:51
56 Hendri Suwardi F337-2 INTERNAL FUN EKIDEN Roamer 00:36:52
57 Herman Sudarsono F358-2 INTERNAL FUN EKIDEN LAC RUNNERS 012 00:36:59
58 Ryan Dwi Nova Muhazzaman F356-3 INTERNAL FUN EKIDEN LAC RUNNERS 018 00:37:18
59 Andri Irwanto F371-4 INTERNAL FUN EKIDEN ONIGIRI 00:37:19
60 Chandra Nur Barokah F323-2 INTERNAL FUN EKIDEN Kancil 00:37:19
61 Aditya Ramanda F334-2 INTERNAL FUN EKIDEN Operation 00:37:21
62 Aji Rifai F329-1 INTERNAL FUN EKIDEN BADUY LUAR 00:37:22
63 Andry Prasetyo F317-3 INTERNAL FUN EKIDEN JIRAYA 00:37:23
64 Farid Abdurrahman F370-3 INTERNAL FUN EKIDEN KALANG KABUT 00:37:27
65 Rizky Firmansyah F357-2 INTERNAL FUN EKIDEN LAC RUNNERS 014 00:37:31
66 Silvia Ayuningsih F375-2 INTERNAL FUN EKIDEN DORAYAKI 00:37:37
67 Robby Maulana F377-2 INTERNAL FUN EKIDEN FLUFFY 00:37:37
68 Teddi Yansyah F306-2 INTERNAL FUN EKIDEN R2BT 00:37:37
69 Rostanti . F328-1 INTERNAL FUN EKIDEN Keong Turbo 00:37:38
70 Liana Pebriyanthi F376-2 INTERNAL FUN EKIDEN LAC RUNNERS 011 00:37:39
71 Gilang Ramdani Prasetiyo F346-3 INTERNAL FUN EKIDEN LAC RUNNERS 003 00:37:44
72 Ahmad Gusti F316-1 INTERNAL FUN EKIDEN The G Boyz 00:37:46
73 Markus Sotardodo F319-1 INTERNAL FUN EKIDEN DJP Offline 00:37:47
74 Arianto Wibawa F353-4 INTERNAL FUN EKIDEN LAC RUNNERS 015 00:37:58
75 Elga Saliq F319-3 INTERNAL FUN EKIDEN DJP Offline 00:37:59
76 Lamhot Sianipar F337-1 INTERNAL FUN EKIDEN Roamer 00:38:03
77 Ilham Herwansyah F359-4 INTERNAL FUN EKIDEN LAC RUNNERS 013 00:38:07
78 Isworo Catur Hantoro F321-3 INTERNAL FUN EKIDEN gemoy melehoy 00:38:09
79 Aang Ansori Miharja F367-2 INTERNAL FUN EKIDEN Siliwangi 00:38:11
80 Furqanul Faruq F359-1 INTERNAL FUN EKIDEN LAC RUNNERS 013 00:38:18
81 Jansen Karnado F311-3 INTERNAL FUN EKIDEN GLADIATOR CIKUPA 00:38:20
82 Dani Supriharno F320-2 INTERNAL FUN EKIDEN The Warriors 00:38:36
83 Hafiz Simarmata F325-1 INTERNAL FUN EKIDEN Berdendang Berlari 00:38:39
84 Aditya Firdaus F330-2 INTERNAL FUN EKIDEN Newbie Runner 00:38:44
85 Wahyudi Arief F304-1 INTERNAL FUN EKIDEN TOUCH HILL 00:38:45
86 Muhammad Devid F324-1 INTERNAL FUN EKIDEN Run To Busan 00:38:45
87 Teguh Budi Purnomo F331-1 INTERNAL FUN EKIDEN GANCANG 00:38:46
88 Muhammad Aljib Ibrahim F340-3 INTERNAL FUN EKIDEN The Cicink 00:38:48
89 Pislang Satya Kurniawan F318-4 INTERNAL FUN EKIDEN PutusCintaMatiKita 00:38:51
90 Albertus Glagah Pudiprasetyo F344-4 INTERNAL FUN EKIDEN LAC RUNNERS 007 00:38:51
91 Andrean Andrean F387-4 INTERNAL FUN EKIDEN Pendekar Lembut 00:38:52
92 Muhamad Azwar F308-3 INTERNAL FUN EKIDEN Serigala Terakhir 00:39:01
93 Rudini . F306-1 INTERNAL FUN EKIDEN R2BT 00:39:04
94 Prahara Ariesca F335-1 INTERNAL FUN EKIDEN SOP Buah 00:39:10
95 Irfan Aprian Iswandana F355-4 INTERNAL FUN EKIDEN LAC RUNNERS 017 00:39:14
96 Heryanto H Sihombing F380-2 INTERNAL FUN EKIDEN OJAL TAK SEDIH 00:39:15
97 Ari Prasetiyo F367-3 INTERNAL FUN EKIDEN Siliwangi 00:39:21
98 Welli Winando Nando Black F334-1 INTERNAL FUN EKIDEN Operation 00:39:22
99 Riftianto Dian Subekti F366-2 INTERNAL FUN EKIDEN Keong Racing 00:39:23
100 Syahrizal Afandy F305-3 INTERNAL FUN EKIDEN S23 ULTRA 00:39:29
101 Adri Anandita Pratama F358-1 INTERNAL FUN EKIDEN LAC RUNNERS 012 00:39:31
102 Amirul Ihsan F314-4 INTERNAL FUN EKIDEN Kami Pasti Finish 00:39:40
103 Deri Alfiansyah F369-2 INTERNAL FUN EKIDEN Dewi Sartika 00:39:43
104 Yudis Dilliana P Pratama F346-4 INTERNAL FUN EKIDEN LAC RUNNERS 003 00:39:44
105 Sidhi Anindyo F386-3 INTERNAL FUN EKIDEN LAST MINUTE 00:39:51
106 Andri Muhamad F355-1 INTERNAL FUN EKIDEN LAC RUNNERS 017 00:39:56
107 Yepri Irawan F322-1 INTERNAL FUN EKIDEN Sultan 00:39:60
108 Yulianti Napitupulu F344-2 INTERNAL FUN EKIDEN LAC RUNNERS 007 00:39:60
109 Yuana Yuana F354-1 INTERNAL FUN EKIDEN LAC RUNNERS 016 00:40:07
110 Reinhart Koesoma F319-2 INTERNAL FUN EKIDEN DJP Offline 00:40:08
111 Dwi Hadiyanti F325-3 INTERNAL FUN EKIDEN Berdendang Berlari 00:40:10
112 Andhika Setiawan F325-2 INTERNAL FUN EKIDEN Berdendang Berlari 00:40:13
113 Grace Manupassa F310-3 INTERNAL FUN EKIDEN OJO DIBANDINGKE 00:40:13
114 Parlindungan Sihombing F311-4 INTERNAL FUN EKIDEN GLADIATOR CIKUPA 00:40:20
115 Jasnawi Jaya F327-1 INTERNAL FUN EKIDEN BADUY DALEM 00:40:21
116 I Made Darmawan F321-1 INTERNAL FUN EKIDEN gemoy melehoy 00:40:22
117 Hendi Apriadi F389-3 INTERNAL FUN EKIDEN Mantul Team 00:40:23
118 Sumiyani Annie F365-1 INTERNAL FUN EKIDEN Mahmud Kandis 00:40:23
119 Fery Irawan F334-4 INTERNAL FUN EKIDEN Operation 00:40:25
120 Fajar Kharisma F381-1 INTERNAL FUN EKIDEN Nasi Tangkar 00:40:26
121 Yulian Dwiatmoko F302-2 INTERNAL FUN EKIDEN SIKALASTIC 00:40:26
122 Eko Suprapto F308-2 INTERNAL FUN EKIDEN Serigala Terakhir 00:40:31
123 Dedi Ruswanto F387-3 INTERNAL FUN EKIDEN Pendekar Lembut 00:40:32
124 Robin K Mahendra F313-3 INTERNAL FUN EKIDEN ASAL TEKAN 00:40:38
125 Mochamad Haris F327-2 INTERNAL FUN EKIDEN BADUY DALEM 00:40:41
126 Fandy Achmad F302-4 INTERNAL FUN EKIDEN SIKALASTIC 00:40:42
127 Dody Ardandi F356-4 INTERNAL FUN EKIDEN LAC RUNNERS 018 00:40:46
128 Ignatius Kurniawan F315-2 INTERNAL FUN EKIDEN HARMONIKU 00:40:57
129 Zaenal Abdullah F343-2 INTERNAL FUN EKIDEN ZAB SONYEONDAN 00:40:59
130 Muhammad Arifil Firdaus F349-4 INTERNAL FUN EKIDEN LAC RUNNERS 010 00:40:60
131 Mutsanna Qoid Al'am F324-3 INTERNAL FUN EKIDEN Run To Busan 00:41:01
132 Muwafaq Al-allaf F344-1 INTERNAL FUN EKIDEN LAC RUNNERS 007 00:41:03
133 Bobby Prayudi F306-3 INTERNAL FUN EKIDEN R2BT 00:41:04
134 Elita Anggriana F328-2 INTERNAL FUN EKIDEN Keong Turbo 00:41:05
135 Imam Rozali F380-1 INTERNAL FUN EKIDEN OJAL TAK SEDIH 00:41:09
136 Imas Rani Kurnia Dewi F318-3 INTERNAL FUN EKIDEN PutusCintaMatiKita 00:41:11
137 Hendry Syarif F345-2 INTERNAL FUN EKIDEN Anak Konda 00:41:11
138 Rina Meilani Simanjuntak F375-1 INTERNAL FUN EKIDEN DORAYAKI 00:41:21
139 Dandy Fariz Ramadhan F370-1 INTERNAL FUN EKIDEN KALANG KABUT 00:41:23
140 Ifa Devina Kusuma F362-2 INTERNAL FUN EKIDEN IRPAN'S ANGELS 00:41:23
141 Tsamratu Aini F371-2 INTERNAL FUN EKIDEN ONIGIRI 00:41:25
142 Tri Bakti Pertiwi F302-1 INTERNAL FUN EKIDEN SIKALASTIC 00:41:27
143 Jenjang Prananta F347-1 INTERNAL FUN EKIDEN LAC RUNNERS 008 00:41:34
144 Ani Kurniawati F336-1 INTERNAL FUN EKIDEN CHILLs 00:41:36
145 Hizkia Abraham F326-1 INTERNAL FUN EKIDEN Samurai 2 00:41:38
146 Juanda Aska F382-3 INTERNAL FUN EKIDEN Panah Asmara 00:41:39
147 Intan Pardila F362-1 INTERNAL FUN EKIDEN IRPAN'S ANGELS 00:41:42
148 Ryan Tejo Wahyutomo F359-3 INTERNAL FUN EKIDEN LAC RUNNERS 013 00:41:46
149 Rian Septian F303-3 INTERNAL FUN EKIDEN Jaran Goyang 00:41:50
150 Malik Ridwan F358-4 INTERNAL FUN EKIDEN LAC RUNNERS 012 00:41:52
151 Depiyanti Harahap F338-1 INTERNAL FUN EKIDEN Beauty & The Best 00:41:54
152 Ayub Sudaryono F336-4 INTERNAL FUN EKIDEN CHILLs 00:41:55
153 Bima Budi Wicaksono F317-4 INTERNAL FUN EKIDEN JIRAYA 00:42:01
154 Moh Iqbal Rahmatulah F389-1 INTERNAL FUN EKIDEN Mantul Team 00:42:10
155 Nilam Amelia F365-3 INTERNAL FUN EKIDEN Mahmud Kandis 00:42:12
156 Ahan Lafdi Munir F364-1 INTERNAL FUN EKIDEN Bondol Fast Runner 00:42:18
157 Eril Aryananda F366-3 INTERNAL FUN EKIDEN Keong Racing 00:42:24
158 Yulianus Halawa F384-3 INTERNAL FUN EKIDEN Jackpot 00:42:24
159 Misbah Rudin F367-1 INTERNAL FUN EKIDEN Siliwangi 00:42:33
160 Rivan Dhiavian F373-1 INTERNAL FUN EKIDEN Gerombolan SiBerat 00:42:34
161 Maya Susanto F371-3 INTERNAL FUN EKIDEN ONIGIRI 00:42:36
162 Sukri Naldi F320-3 INTERNAL FUN EKIDEN The Warriors 00:42:48
163 Rendi Putra F308-4 INTERNAL FUN EKIDEN Serigala Terakhir 00:42:51
164 Yohan Saputra F309-2 INTERNAL FUN EKIDEN BADUY CIKUPA 00:42:51
165 Andhika Pradana Wena F348-1 INTERNAL FUN EKIDEN LAC RUNNERS 004 00:42:54
166 Tatang Sabilarosad F366-1 INTERNAL FUN EKIDEN Keong Racing 00:42:58
167 D Ratna F365-4 INTERNAL FUN EKIDEN Mahmud Kandis 00:43:06
168 Ungky Suryo Wibowo F332-1 INTERNAL FUN EKIDEN OTOLEASE GARAGE 00:43:22
169 Erwin Eriza F373-2 INTERNAL FUN EKIDEN Gerombolan SiBerat 00:43:27
170 Hb Amboro Lisdianto F340-2 INTERNAL FUN EKIDEN The Cicink 00:43:27
171 Dwi Habsari Wijiningsih F331-4 INTERNAL FUN EKIDEN GANCANG 00:43:36
172 Shella Alvionita F339-3 INTERNAL FUN EKIDEN Ladybugs 00:43:36
173 Faizal Anwar F332-3 INTERNAL FUN EKIDEN OTOLEASE GARAGE 00:43:38
174 Abdul Hamid F382-1 INTERNAL FUN EKIDEN Panah Asmara 00:43:43
175 Dava Nurrokhman F324-4 INTERNAL FUN EKIDEN Run To Busan 00:43:43
176 Jubaedah Setiawati F313-4 INTERNAL FUN EKIDEN ASAL TEKAN 00:43:43
177 Yoga Prasetyo F389-4 INTERNAL FUN EKIDEN Mantul Team 00:43:48
178 Clara Vonita Sihombing F341-2 INTERNAL FUN EKIDEN LAC RUNNERS 006 00:43:50
179 Isti Julianti F362-3 INTERNAL FUN EKIDEN IRPAN'S ANGELS 00:43:51
180 Muhammad Irfan F376-1 INTERNAL FUN EKIDEN LAC RUNNERS 011 00:43:57
181 Salahuddin Al Haris F355-2 INTERNAL FUN EKIDEN LAC RUNNERS 017 00:43:59
182 Tita Mahalia Ramadhanty Setiono Putri F351-2 INTERNAL FUN EKIDEN LAC RUNNERS 009 00:43:60
183 Abdul Kadir F349-3 INTERNAL FUN EKIDEN LAC RUNNERS 010 00:43:60
184 Rizka Restiani F386-2 INTERNAL FUN EKIDEN LAST MINUTE 00:44:01
185 Devita Fitria F315-3 INTERNAL FUN EKIDEN HARMONIKU 00:44:05
186 Topik Sudrajat F337-4 INTERNAL FUN EKIDEN Roamer 00:44:06
187 Zaelani Zaelani F303-2 INTERNAL FUN EKIDEN Jaran Goyang 00:44:07
188 Tiara Novia Ambarwati F336-3 INTERNAL FUN EKIDEN CHILLs 00:44:10
189 Tedi Kuntadi F308-1 INTERNAL FUN EKIDEN Serigala Terakhir 00:44:13
190 Raynal Dwi Putra F306-4 INTERNAL FUN EKIDEN R2BT 00:44:15
191 Syanti Dewi F352-1 INTERNAL FUN EKIDEN Jawara Ciledug 2 00:44:18
192 Luqman Bekti Widodo F341-1 INTERNAL FUN EKIDEN LAC RUNNERS 006 00:44:21
193 Putra Persada F383-1 INTERNAL FUN EKIDEN Selalu Bahagia 00:44:22
194 Anton Wahyudi F342-3 INTERNAL FUN EKIDEN Nasi Ulam 00:44:22
195 Dika Agustian Harja F351-1 INTERNAL FUN EKIDEN LAC RUNNERS 009 00:44:32
196 Dea Prameswari F326-2 INTERNAL FUN EKIDEN Samurai 2 00:44:34
197 Nelli Mardiati F313-1 INTERNAL FUN EKIDEN ASAL TEKAN 00:44:41
198 Jerremia Sitepu F305-1 INTERNAL FUN EKIDEN S23 ULTRA 00:44:41
199 Retno Lestari F336-2 INTERNAL FUN EKIDEN CHILLs 00:44:46
200 Gabriella Dhianya Sukma F335-3 INTERNAL FUN EKIDEN SOP Buah 00:44:47
201 Randy Junian Harahap F304-3 INTERNAL FUN EKIDEN TOUCH HILL 00:44:52
202 Muhamad Widodo F317-1 INTERNAL FUN EKIDEN JIRAYA 00:44:54
203 Edward Widjanarko F388-3 INTERNAL FUN EKIDEN KEONG ALOT 00:44:55
204 Rio Ridyatmoko F305-4 INTERNAL FUN EKIDEN S23 ULTRA 00:45:03
205 Mohamad Lutfi Alfiyan F317-2 INTERNAL FUN EKIDEN JIRAYA 00:45:03
206 Muhammad Yusuf Firmansyah F379-1 INTERNAL FUN EKIDEN Huhah 00:45:06
207 Alit Tutuko F346-1 INTERNAL FUN EKIDEN LAC RUNNERS 003 00:45:06
208 Saiful Saiful F357-1 INTERNAL FUN EKIDEN LAC RUNNERS 014 00:45:09
209 Achmad Izhar Holiq F357-3 INTERNAL FUN EKIDEN LAC RUNNERS 014 00:45:10
210 Dyah Jalarina F310-2 INTERNAL FUN EKIDEN OJO DIBANDINGKE 00:45:17
211 Putri Novaliza F370-2 INTERNAL FUN EKIDEN KALANG KABUT 00:45:21
212 Arya Manggis Kuning F353-3 INTERNAL FUN EKIDEN LAC RUNNERS 015 00:45:22
213 Irwan Wahyu Santosa F356-1 INTERNAL FUN EKIDEN LAC RUNNERS 018 00:45:26
214 Billy Merkava F388-2 INTERNAL FUN EKIDEN KEONG ALOT 00:45:27
215 Radinal Efratha Sembiring F345-1 INTERNAL FUN EKIDEN Anak Konda 00:45:29
216 Djohan Marzuki F301-4 INTERNAL FUN EKIDEN TEAM DMA 00:45:30
217 Muhammad Zidan F361-2 INTERNAL FUN EKIDEN Jawara Ciledug 4 00:45:31
218 Firman Mustopa F303-4 INTERNAL FUN EKIDEN Jaran Goyang 00:45:36
219 Muhammad Fadel Fakhri F355-3 INTERNAL FUN EKIDEN LAC RUNNERS 017 00:45:39
220 Muhammad Syawallul Akbar F370-4 INTERNAL FUN EKIDEN KALANG KABUT 00:45:43
221 Agus Juliono F379-3 INTERNAL FUN EKIDEN Huhah 00:45:52
222 Novya Chairunisa F318-2 INTERNAL FUN EKIDEN PutusCintaMatiKita 00:46:03
223 Bovindo Eko Junior F353-2 INTERNAL FUN EKIDEN LAC RUNNERS 015 00:46:17
224 Ujaji Doank F329-3 INTERNAL FUN EKIDEN BADUY LUAR 00:46:17
225 Hendi Prasetyo F361-4 INTERNAL FUN EKIDEN Jawara Ciledug 4 00:46:23
226 Intan Panggabean F328-3 INTERNAL FUN EKIDEN Keong Turbo 00:46:24
227 Mia F Permatasari F313-2 INTERNAL FUN EKIDEN ASAL TEKAN 00:46:28
228 Herlina Kurniasih F388-1 INTERNAL FUN EKIDEN KEONG ALOT 00:46:32
229 Wahyudin Dien F321-2 INTERNAL FUN EKIDEN gemoy melehoy 00:46:32
230 Ahmad Maulana F325-4 INTERNAL FUN EKIDEN Berdendang Berlari 00:46:34
231 Hafizul Amin F322-4 INTERNAL FUN EKIDEN Sultan 00:46:49
232 Agus Waluyo F342-4 INTERNAL FUN EKIDEN Nasi Ulam 00:46:50
233 M Kirozul Ichsan Ichsan F334-3 INTERNAL FUN EKIDEN Operation 00:46:54
234 Rifa Andyanto F387-2 INTERNAL FUN EKIDEN Pendekar Lembut 00:46:55
235 Hersan Vira Sancaya F377-3 INTERNAL FUN EKIDEN FLUFFY 00:46:60
236 Rika Agus N F386-1 INTERNAL FUN EKIDEN LAST MINUTE 00:46:60
237 Rully Nugroho Raharjo F349-2 INTERNAL FUN EKIDEN LAC RUNNERS 010 00:47:02
238 Raehan Julisya Nugraha F376-4 INTERNAL FUN EKIDEN LAC RUNNERS 011 00:47:03
239 R Sigit Widiyo Supriyanto F342-1 INTERNAL FUN EKIDEN Nasi Ulam 00:47:07
240 Octaria Octaria F354-2 INTERNAL FUN EKIDEN LAC RUNNERS 016 00:47:11
241 Kurnia Cahyadi F357-4 INTERNAL FUN EKIDEN LAC RUNNERS 014 00:47:12
242 Hadiyat Hadiyat F356-2 INTERNAL FUN EKIDEN LAC RUNNERS 018 00:47:16
243 Bambang Sarnoko F309-4 INTERNAL FUN EKIDEN BADUY CIKUPA 00:47:28
244 Mulia Aminuddin F305-2 INTERNAL FUN EKIDEN S23 ULTRA 00:47:28
245 Mirna Putri Lestari F335-2 INTERNAL FUN EKIDEN SOP Buah 00:47:37
246 Feirman Sutrisna F380-3 INTERNAL FUN EKIDEN OJAL TAK SEDIH 00:47:39
247 Bambang Priyadi F389-2 INTERNAL FUN EKIDEN Mantul Team 00:47:41
248 Puspita Laras F350-2 INTERNAL FUN EKIDEN LAC RUNNERS 005 00:47:47
249 Savira Artamevia F344-3 INTERNAL FUN EKIDEN LAC RUNNERS 007 00:47:53
250 Iding Kusnanto F360-1 INTERNAL FUN EKIDEN Jawara Ciledug 3 00:47:56
251 Viranda Karlina Putri Sadia F341-3 INTERNAL FUN EKIDEN LAC RUNNERS 006 00:47:58
252 Sarpika Arbandi F337-3 INTERNAL FUN EKIDEN Roamer 00:48:07
253 Ronny B Gazra F312-3 INTERNAL FUN EKIDEN Tanpa Motivasi 00:48:08
254 M. Rizky Mahaputra F312-1 INTERNAL FUN EKIDEN Tanpa Motivasi 00:48:15
255 Marlisyah Rahmi Riliswiba Nasrun Ismedt F347-3 INTERNAL FUN EKIDEN LAC RUNNERS 008 00:48:19
256 Thamara Wulandari F314-3 INTERNAL FUN EKIDEN Kami Pasti Finish 00:48:20
257 Mohamad Fahri Windriaji F345-3 INTERNAL FUN EKIDEN Anak Konda 00:48:29
258 Eva Sibagariang F310-1 INTERNAL FUN EKIDEN OJO DIBANDINGKE 00:48:37
259 Firman Alamsyah F383-3 INTERNAL FUN EKIDEN Selalu Bahagia 00:48:43
260 Lutfi Arief Hidayatullah F369-3 INTERNAL FUN EKIDEN Dewi Sartika 00:48:49
261 Imron - F364-3 INTERNAL FUN EKIDEN Bondol Fast Runner 00:48:53
262 Annisa Ayu Gilang Arifia F347-2 INTERNAL FUN EKIDEN LAC RUNNERS 008 00:49:08
263 Putri Saeza Ramadhini F348-3 INTERNAL FUN EKIDEN LAC RUNNERS 004 00:49:08
264 Raihan Nadhif Bustani F377-4 INTERNAL FUN EKIDEN FLUFFY 00:49:12
265 Deni Binna Suhenda F364-2 INTERNAL FUN EKIDEN Bondol Fast Runner 00:49:36
266 Muhamad Juhen F360-2 INTERNAL FUN EKIDEN Jawara Ciledug 3 00:49:40
267 Windy F326-3 INTERNAL FUN EKIDEN Samurai 2 00:49:43
268 Mahendra Rafdi F330-3 INTERNAL FUN EKIDEN Newbie Runner 00:49:53
269 Novran Rizambhara F315-1 INTERNAL FUN EKIDEN HARMONIKU 00:50:16
270 Sukma Ady Pramono F381-2 INTERNAL FUN EKIDEN Nasi Tangkar 00:50:18
271 Agahari Satyah Nirmala F339-2 INTERNAL FUN EKIDEN Ladybugs 00:50:24
272 Ibnu Maulana Hakim F304-2 INTERNAL FUN EKIDEN TOUCH HILL 00:50:37
273 Marissa Marissa F338-3 INTERNAL FUN EKIDEN Beauty & The Best 00:50:53
274 Dodi Sulistio F330-1 INTERNAL FUN EKIDEN Newbie Runner 00:51:03
275 Irpannahyudin Irpannahyudin F362-4 INTERNAL FUN EKIDEN IRPAN'S ANGELS 00:51:26
276 Abdul Haisman F360-3 INTERNAL FUN EKIDEN Jawara Ciledug 3 00:51:27
277 Adrian Darma Saputra Gandakusuma F350-1 INTERNAL FUN EKIDEN LAC RUNNERS 005 00:51:41
278 Oo Tekadi Santoso F379-2 INTERNAL FUN EKIDEN Huhah 00:51:49
279 Mahpudin Mahpudin F381-3 INTERNAL FUN EKIDEN Nasi Tangkar 00:52:05
280 Maria Grace Irene Siregar F323-1 INTERNAL FUN EKIDEN Kancil 00:52:32
281 Dhinar Hestiningsih Widayati F339-1 INTERNAL FUN EKIDEN Ladybugs 00:52:33
282 Dandy Pahlevi F382-2 INTERNAL FUN EKIDEN Panah Asmara 00:54:36
283 Rifdah Aulia F350-3 INTERNAL FUN EKIDEN LAC RUNNERS 005 00:55:09
284 Veni Suriani F352-2 INTERNAL FUN EKIDEN Jawara Ciledug 2 00:55:27
285 Neta Afrianita F348-2 INTERNAL FUN EKIDEN LAC RUNNERS 004 00:56:03
286 Budisantoso Wedokusumo F332-2 INTERNAL FUN EKIDEN OTOLEASE GARAGE 00:56:15
287 Adinda Nur Fadillah F383-2 INTERNAL FUN EKIDEN Selalu Bahagia 00:56:23
288 Intan Puspitasari F323-3 INTERNAL FUN EKIDEN Kancil 00:56:58
289 Viva Susilawati F352-3 INTERNAL FUN EKIDEN Jawara Ciledug 2 00:58:04
290 Retno Diwati F354-3 INTERNAL FUN EKIDEN LAC RUNNERS 016 00:58:43
291 Yudistia Ramandika F340-1 INTERNAL FUN EKIDEN The Cicink 00:59:30
292 Suhendi Suhendi F369-1 INTERNAL FUN EKIDEN Dewi Sartika 00:59:30
293 Bella Dwisudawati F351-3 INTERNAL FUN EKIDEN LAC RUNNERS 009 00:59:51
294 Yuli Kurniawan F373-3 INTERNAL FUN EKIDEN Gerombolan SiBerat 00:59:54
295 Dede Permana F329-2 INTERNAL FUN EKIDEN BADUY LUAR 01:06:57